PHENX84 YPKS-YPKS

Flight info

Callsign PHENX84
Flight time 0h 30m
Altitude 2500
Route DCT
Aircraft EC45/L-SDFGRY/C

Departure

Time 2026-04-27 11:51
Airport Parkes Airport (YPKS)

Arrival

Time 2026-04-27 12:22
Airport Parkes Airport (YPKS)
Time Latitude Longitude Altitude Speed Heading
2026-04-27 11:44 -33.13803 148.23526 1050 ft 0 kts 187°
2026-04-27 11:46 -33.13806 148.23524 1047 ft 1 kts 175°
2026-04-27 11:46 -33.13810 148.23523 1058 ft 1 kts 157°
2026-04-27 11:46 -33.13809 148.23507 1062 ft 3 kts 140°
2026-04-27 11:47 -33.13814 148.23476 1175 ft 8 kts 145°
2026-04-27 11:47 -33.14089 148.23464 1219 ft 72 kts 198°
2026-04-27 11:47 -33.14215 148.22840 1361 ft 81 kts 264°
2026-04-27 11:47 -33.14247 148.22166 1426 ft 80 kts 269°
2026-04-27 11:48 -33.14243 148.21508 1461 ft 80 kts 270°
2026-04-27 11:48 -33.14237 148.20835 1480 ft 80 kts 269°
2026-04-27 11:48 -33.14229 148.20180 1488 ft 78 kts 270°
2026-04-27 11:48 -33.14225 148.19532 1494 ft 78 kts 269°
2026-04-27 11:49 -33.14216 148.18884 1495 ft 78 kts 270°
2026-04-27 11:49 -33.14209 148.18238 1495 ft 78 kts 269°
2026-04-27 11:49 -33.14196 148.17590 1496 ft 79 kts 272°
2026-04-27 11:49 -33.14192 148.16943 1497 ft 78 kts 268°
2026-04-27 11:50 -33.14294 148.16328 1487 ft 77 kts 239°
2026-04-27 11:50 -33.14642 148.15841 1484 ft 81 kts 217°
2026-04-27 11:50 -33.15190 148.15406 1487 ft 108 kts 206°
2026-04-27 11:50 -33.15857 148.15035 1501 ft 103 kts 191°
2026-04-27 11:51 -33.16562 148.15043 1499 ft 102 kts 169°
2026-04-27 11:51 -33.17259 148.14947 1498 ft 104 kts 204°
2026-04-27 11:51 -33.18301 148.13822 1679 ft 91 kts 205°
2026-04-27 11:52 -33.18873 148.13484 1855 ft 93 kts 203°
2026-04-27 11:52 -33.19443 148.13139 1936 ft 91 kts 202°
2026-04-27 11:52 -33.20011 148.12793 1952 ft 96 kts 201°
2026-04-27 11:52 -33.20729 148.12446 1964 ft 123 kts 195°
2026-04-27 11:53 -33.21519 148.12104 1984 ft 119 kts 196°
2026-04-27 11:53 -33.22307 148.11762 1987 ft 122 kts 196°
2026-04-27 11:53 -33.23100 148.11421 1988 ft 121 kts 196°
2026-04-27 11:53 -33.23891 148.11083 1992 ft 121 kts 196°
2026-04-27 11:54 -33.24682 148.10747 1992 ft 120 kts 196°
2026-04-27 11:54 -33.25472 148.10414 1991 ft 120 kts 196°
2026-04-27 11:54 -33.26262 148.10076 1990 ft 120 kts 196°
2026-04-27 11:54 -33.27045 148.09715 1992 ft 121 kts 198°
2026-04-27 11:55 -33.27825 148.09346 1996 ft 121 kts 198°
2026-04-27 11:55 -33.28604 148.08976 1995 ft 121 kts 198°
2026-04-27 11:55 -33.29401 148.08605 1996 ft 123 kts 198°
2026-04-27 11:55 -33.30195 148.08229 1997 ft 123 kts 201°
2026-04-27 11:56 -33.30968 148.07779 1996 ft 124 kts 204°
2026-04-27 11:56 -33.31734 148.07307 1995 ft 125 kts 206°
2026-04-27 11:56 -33.32472 148.06759 1997 ft 125 kts 210°
2026-04-27 11:56 -33.33192 148.06184 2002 ft 123 kts 213°
2026-04-27 11:57 -33.33853 148.05543 1994 ft 123 kts 219°
2026-04-27 11:57 -33.34486 148.04849 1994 ft 123 kts 220°
2026-04-27 11:57 -33.35114 148.04152 1985 ft 123 kts 220°
2026-04-27 11:57 -33.35740 148.03471 1744 ft 120 kts 220°
2026-04-27 11:58 -33.36366 148.02815 1520 ft 119 kts 219°
2026-04-27 11:58 -33.36990 148.02167 1417 ft 116 kts 219°
2026-04-27 11:58 -33.37368 148.01783 1379 ft 101 kts 219°
2026-04-27 11:58 -33.37915 148.01312 1373 ft 90 kts 199°
2026-04-27 11:59 -33.38518 148.01476 1319 ft 92 kts 150°
2026-04-27 11:59 -33.39140 148.01738 1223 ft 99 kts 169°
2026-04-27 11:59 -33.39835 148.01752 1250 ft 99 kts 195°
2026-04-27 11:59 -33.40095 148.01094 1352 ft 98 kts 280°
2026-04-27 12:00 -33.39783 148.00438 1536 ft 92 kts 314°
2026-04-27 12:00 -33.39278 147.99933 1618 ft 99 kts 322°
2026-04-27 12:00 -33.38653 147.99412 1275 ft 105 kts 338°
2026-04-27 12:00 -33.38009 147.99330 1321 ft 83 kts 13°
2026-04-27 12:01 -33.37517 147.99564 1336 ft 73 kts 37°
2026-04-27 12:01 -33.37088 147.99850 1338 ft 68 kts 21°
2026-04-27 12:01 -33.36629 148.00027 1422 ft 62 kts 22°
2026-04-27 12:01 -33.36193 148.00330 1374 ft 77 kts 47°
2026-04-27 12:02 -33.36257 148.00803 1444 ft 64 kts 151°
2026-04-27 12:02 -33.36679 148.00759 1413 ft 64 kts 190°
2026-04-27 12:02 -33.37053 148.00765 1287 ft 46 kts 175°
2026-04-27 12:02 -33.37294 148.00802 1231 ft 21 kts 172°
2026-04-27 12:03 -33.37378 148.00824 1247 ft 19 kts 174°
2026-04-27 12:03 -33.37656 148.00988 1206 ft 79 kts 144°
2026-04-27 12:03 -33.38172 148.01324 983 ft 73 kts 171°
2026-04-27 12:03 -33.38551 148.01320 1009 ft 43 kts 178°
2026-04-27 12:04 -33.38846 148.01309 1037 ft 43 kts 179°
2026-04-27 12:04 -33.39118 148.01332 1057 ft 33 kts 172°
2026-04-27 12:04 -33.39296 148.01374 1005 ft 16 kts 152°
2026-04-27 12:04 -33.39403 148.01399 961 ft 13 kts 162°
2026-04-27 12:05 -33.39457 148.01412 941 ft 9 kts 165°
2026-04-27 12:05 -33.39513 148.01419 925 ft 9 kts 193°
2026-04-27 12:05 -33.39569 148.01418 900 ft 8 kts 239°
2026-04-27 12:05 -33.39584 148.01399 852 ft 4 kts 256°
2026-04-27 12:06 -33.39585 148.01386 840 ft 0 kts 256°
2026-04-27 12:06 -33.39585 148.01384 832 ft 0 kts 254°
2026-04-27 12:07 -33.39585 148.01383 834 ft 3 kts 245°
2026-04-27 12:07 -33.39484 148.01220 915 ft 50 kts 359°
2026-04-27 12:07 -33.39054 148.01370 1042 ft 79 kts 22°
2026-04-27 12:08 -33.38493 148.01485 1208 ft 80 kts
2026-04-27 12:08 -33.37841 148.01566 1363 ft 107 kts
2026-04-27 12:08 -33.37112 148.01667 1448 ft 104 kts
2026-04-27 12:08 -33.36401 148.01875 1449 ft 114 kts 21°
2026-04-27 12:09 -33.35624 148.02287 1491 ft 122 kts 25°
2026-04-27 12:09 -33.34861 148.02715 1481 ft 122 kts 26°
2026-04-27 12:09 -33.34094 148.03144 1488 ft 122 kts 27°
2026-04-27 12:09 -33.33335 148.03592 1497 ft 122 kts 28°
2026-04-27 12:10 -33.32581 148.04046 1495 ft 121 kts 29°
2026-04-27 12:10 -33.31834 148.04524 1495 ft 122 kts 30°
2026-04-27 12:10 -33.31105 148.04994 1502 ft 122 kts 30°
2026-04-27 12:10 -33.30361 148.05475 1502 ft 121 kts 30°
2026-04-27 12:11 -33.29621 148.05953 1493 ft 121 kts 30°
2026-04-27 12:11 -33.28875 148.06431 1499 ft 121 kts 30°
2026-04-27 12:11 -33.28130 148.06912 1498 ft 122 kts 30°
2026-04-27 12:11 -33.27386 148.07394 1490 ft 122 kts 30°
2026-04-27 12:12 -33.26639 148.07871 1496 ft 121 kts 30°
2026-04-27 12:12 -33.25898 148.08344 1500 ft 121 kts 30°
2026-04-27 12:12 -33.25157 148.08817 1500 ft 121 kts 30°
2026-04-27 12:12 -33.24410 148.09295 1495 ft 121 kts 30°
2026-04-27 12:13 -33.23667 148.09769 1495 ft 121 kts 30°
2026-04-27 12:13 -33.22921 148.10245 1495 ft 121 kts 30°
2026-04-27 12:13 -33.22178 148.10717 1493 ft 121 kts 30°
2026-04-27 12:13 -33.21436 148.11191 1496 ft 121 kts 30°
2026-04-27 12:14 -33.20690 148.11666 1496 ft 122 kts 30°
2026-04-27 12:14 -33.19945 148.12141 1497 ft 121 kts 30°
2026-04-27 12:14 -33.19208 148.12621 1493 ft 121 kts 31°
2026-04-27 12:14 -33.18492 148.13144 1584 ft 121 kts 36°
2026-04-27 12:15 -33.17833 148.13637 1839 ft 99 kts 35°
2026-04-27 12:15 -33.17256 148.14021 1911 ft 96 kts 34°
2026-04-27 12:15 -33.16635 148.14454 1941 ft 117 kts 36°
2026-04-27 12:15 -33.15918 148.14993 1997 ft 119 kts 35°
2026-04-27 12:16 -33.15207 148.15512 2000 ft 120 kts 35°
2026-04-27 12:16 -33.14487 148.16028 2000 ft 121 kts 35°
2026-04-27 12:16 -33.13775 148.16536 2000 ft 121 kts 35°
2026-04-27 12:16 -33.13054 148.17051 2001 ft 121 kts 35°
2026-04-27 12:17 -33.12320 148.17574 1993 ft 122 kts 35°
2026-04-27 12:17 -33.11601 148.18080 2001 ft 120 kts 34°
2026-04-27 12:17 -33.10884 148.18589 1998 ft 120 kts 35°
2026-04-27 12:17 -33.10157 148.19107 2000 ft 120 kts 35°
2026-04-27 12:18 -33.09450 148.19605 2002 ft 120 kts 34°
2026-04-27 12:18 -33.08735 148.20110 1996 ft 119 kts 35°
2026-04-27 12:18 -33.08048 148.20606 1991 ft 113 kts 36°
2026-04-27 12:18 -33.07378 148.21092 1993 ft 114 kts 35°
2026-04-27 12:19 -33.06695 148.21601 1999 ft 116 kts 36°
2026-04-27 12:19 -33.06015 148.22119 2000 ft 115 kts 34°
2026-04-27 12:19 -33.05341 148.22628 1999 ft 114 kts 36°
2026-04-27 12:19 -33.04666 148.23127 1999 ft 115 kts 34°
2026-04-27 12:20 -33.03973 148.23613 2000 ft 116 kts 32°
2026-04-27 12:20 -33.03254 148.24050 2001 ft 116 kts 29°
2026-04-27 12:20 -33.02534 148.24481 1996 ft 116 kts 30°
2026-04-27 12:20 -33.01814 148.24918 1999 ft 117 kts 30°
2026-04-27 12:21 -33.01080 148.25375 1767 ft 129 kts 31°
2026-04-27 12:21 -33.00290 148.25795 1556 ft 126 kts 23°
2026-04-27 12:21 -32.99610 148.26222 1525 ft 90 kts 57°
2026-04-27 12:21 -32.99825 148.26675 1465 ft 68 kts 173°
2026-04-27 12:22 -32.99947 148.26421 1354 ft 7 kts 294°
2026-04-27 12:22 -32.99945 148.26367 1251 ft 2 kts 298°
2026-04-27 12:22 -32.99939 148.26358 1239 ft 1 kts 297°
2026-04-27 12:22 -32.99935 148.26357 1230 ft 0 kts 297°
2026-04-27 12:27 -32.99934 148.26355 1233 ft 5 kts 290°
2026-04-27 12:28 -32.99890 148.26199 1365 ft 39 kts 288°
2026-04-27 12:28 -32.99953 148.25626 1367 ft 88 kts 223°
2026-04-27 12:28 -33.00550 148.25237 1300 ft 114 kts 205°
2026-04-27 12:28 -33.01206 148.24760 1427 ft 101 kts 207°
2026-04-27 12:29 -33.01834 148.24444 1511 ft 94 kts 187°
2026-04-27 12:29 -33.02487 148.24454 1635 ft 90 kts 175°
2026-04-27 12:29 -33.03188 148.24419 1576 ft 105 kts 180°
2026-04-27 12:29 -33.03928 148.24314 1627 ft 108 kts 181°
2026-04-27 12:30 -33.04669 148.24387 1682 ft 106 kts 162°
2026-04-27 12:30 -33.05439 148.24542 1518 ft 124 kts 169°
2026-04-27 12:30 -33.06347 148.24639 1376 ft 135 kts 172°
2026-04-27 12:30 -33.07270 148.24532 1365 ft 133 kts 194°
2026-04-27 12:31 -33.08175 148.24253 1222 ft 133 kts 189°
2026-04-27 12:31 -33.09065 148.24157 1198 ft 125 kts 171°
2026-04-27 12:31 -33.09925 148.24154 1233 ft 120 kts 180°
2026-04-27 12:31 -33.10770 148.24002 1164 ft 123 kts 184°
2026-04-27 12:32 -33.11561 148.23913 1152 ft 120 kts 195°
2026-04-27 12:32 -33.12358 148.23674 1151 ft 116 kts 185°
2026-04-27 12:32 -33.13155 148.23554 1110 ft 112 kts 188°
2026-04-27 12:32 -33.13729 148.23412 1101 ft 34 kts 197°
2026-04-27 12:33 -33.13782 148.23360 1060 ft 2 kts 201°
2026-04-27 12:33 -33.13786 148.23357 1048 ft 1 kts 200°